createdAt,value
2023-04-14T00:02:00.469Z,85979.31
2023-04-14T00:04:28.410Z,85986.22
2023-04-14T00:06:58.271Z,85988.50
2023-04-14T00:09:26.191Z,85989.28
2023-04-14T00:11:53.391Z,85993.53
2023-04-14T00:14:23.533Z,85984.63
2023-04-14T00:16:50.816Z,85982.84
2023-04-14T00:19:18.107Z,85985.88
2023-04-14T00:21:45.537Z,85992.25
2023-04-14T00:24:12.905Z,85987.91
2023-04-14T00:26:40.192Z,85984.63
2023-04-14T00:29:07.600Z,85979.06
2023-04-14T00:31:35.058Z,85986.47
2023-04-14T00:34:02.424Z,85983.56
2023-04-14T00:36:29.629Z,85970.31
2023-04-14T00:38:56.839Z,85959.91
2023-04-14T00:41:24.057Z,85957.72
2023-04-14T00:43:54.887Z,85951.31
2023-04-14T00:46:22.869Z,85939.78
2023-04-14T00:48:50.388Z,85921.97
2023-04-14T00:51:17.659Z,85913.09
2023-04-14T00:53:45.255Z,85911.69
2023-04-14T00:56:13.137Z,85904.56
2023-04-14T00:58:41.613Z,85901.59
2023-04-14T01:01:09.006Z,85891.63
2023-04-14T01:03:36.370Z,85893.91
2023-04-14T01:06:03.886Z,85889.47
2023-04-14T01:08:31.575Z,85899.13
2023-04-14T01:11:42.765Z,85905.88
2023-04-14T01:14:24.279Z,85918.19
2023-04-14T01:17:00.593Z,85924.16
2023-04-14T01:20:03.723Z,85919.34
2023-04-14T01:22:36.311Z,85914.13
2023-04-14T01:26:04.413Z,85917.84
2023-04-14T01:29:02.680Z,85913.38
2023-04-14T01:31:50.792Z,85912.28
2023-04-14T01:35:03.561Z,85915.31
2023-04-14T01:37:43.047Z,85911.53
2023-04-14T01:40:19.657Z,85908.22
2023-04-14T01:43:04.405Z,85903.75
2023-04-14T01:45:50.267Z,85910.81
2023-04-14T01:48:18.749Z,85917.13
2023-04-14T01:50:48.790Z,85916.78
2023-04-14T01:53:19.851Z,85920.50
2023-04-14T01:55:51.417Z,85911.56
2023-04-14T01:58:21.923Z,85901.88
2023-04-14T02:00:52.050Z,85901.88
2023-04-14T02:03:21.788Z,85907.47
2023-04-14T02:05:52.589Z,85906.69
2023-04-14T02:08:23.136Z,85910.44
2023-04-14T02:10:54.132Z,85899.25
2023-04-14T02:13:24.073Z,85897.81
2023-04-14T02:15:52.771Z,85892.56
2023-04-14T02:18:23.214Z,85888.09
2023-04-14T02:20:54.671Z,85893.31
2023-04-14T02:23:22.375Z,85878.81
2023-04-14T02:26:00.787Z,85881.41
2023-04-14T02:28:34.441Z,85884.38
2023-04-14T02:31:10.047Z,85887.72
2023-04-14T02:33:39.933Z,85880.28
2023-04-14T02:36:18.203Z,85882.13
2023-04-14T02:39:04.642Z,85886.25
2023-04-14T02:41:34.561Z,85885.50
2023-04-14T02:44:18.771Z,85889.22
2023-04-14T02:47:09.533Z,85891.84
2023-04-14T02:49:43.501Z,85889.22
2023-04-14T02:52:15.739Z,85890.72
2023-04-14T02:54:44.540Z,85887.34
2023-04-14T02:57:12.449Z,85895.56
2023-04-14T02:59:42.044Z,85886.63
2023-04-14T03:02:11.770Z,85883.66
2023-04-14T03:04:39.942Z,85881.81
2023-04-14T03:07:09.443Z,85878.06
2023-04-14T03:09:37.528Z,85880.34
2023-04-14T03:12:07.409Z,85888.16
2023-04-14T03:14:37.586Z,85879.59
2023-04-14T03:17:06.768Z,85881.06
2023-04-14T03:19:35.657Z,85881.06
2023-04-14T03:22:04.825Z,85885.16
2023-04-14T03:24:35.993Z,85887.06
2023-04-14T03:27:22.428Z,85884.06
2023-04-14T03:29:55.361Z,85880.38
2023-04-14T03:32:32.461Z,85879.97
2023-04-14T03:35:02.246Z,85877.38
2023-04-14T03:37:35.264Z,85877.78
2023-04-14T03:40:03.459Z,85878.50
2023-04-14T03:42:31.507Z,85879.63
2023-04-14T03:45:00.036Z,85876.63
2023-04-14T03:47:27.453Z,85882.94
2023-04-14T03:49:58.848Z,85875.13
2023-04-14T03:52:28.976Z,85879.56
2023-04-14T03:55:01.063Z,85872.53
2023-04-14T03:57:32.403Z,85872.88
2023-04-14T04:00:02.918Z,85868.78
2023-04-14T04:02:32.032Z,85871.06
2023-04-14T04:05:00.038Z,85874.03
2023-04-14T04:07:30.742Z,85875.88
2023-04-14T04:10:00.095Z,85865.44
2023-04-14T04:12:29.737Z,85861.75
2023-04-14T04:14:57.109Z,85866.56
2023-04-14T04:17:29.957Z,85864.34
2023-04-14T04:20:00.370Z,85869.19
2023-04-14T04:22:28.804Z,85875.84
2023-04-14T04:24:57.918Z,85871.41
2023-04-14T04:27:28.271Z,85876.97
2023-04-14T04:29:56.314Z,85875.84
2023-04-14T04:32:23.784Z,85871.44
2023-04-14T04:34:53.091Z,85870.31
2023-04-14T04:37:21.892Z,85878.50
2023-04-14T04:39:49.458Z,85875.56
2023-04-14T04:42:16.704Z,85869.97
2023-04-14T04:44:43.993Z,85878.16
2023-04-14T04:47:13.336Z,85884.81
2023-04-14T04:49:40.923Z,85891.13
2023-04-14T04:52:08.308Z,85888.16
2023-04-14T04:54:35.511Z,85894.09
2023-04-14T04:57:02.805Z,85891.50
2023-04-14T04:59:30.004Z,85897.09
2023-04-14T05:01:57.347Z,85893.00
2023-04-14T05:04:24.698Z,85901.56
2023-04-14T05:06:51.948Z,85897.47
2023-04-14T05:09:19.305Z,85903.44
2023-04-14T05:11:46.416Z,85901.56
2023-04-14T05:14:13.577Z,85907.16
2023-04-14T05:16:40.824Z,85904.94
2023-04-14T05:19:08.025Z,85904.56
2023-04-14T05:21:35.234Z,85897.88
2023-04-14T05:24:02.501Z,85904.19
2023-04-14T05:26:51.977Z,85905.31
2023-04-14T05:29:17.874Z,85905.31
2023-04-14T05:31:45.848Z,85900.09
2023-04-14T05:34:13.245Z,85910.16
2023-04-14T05:36:40.601Z,85922.06
2023-04-14T05:39:07.746Z,85917.63
2023-04-14T05:41:34.916Z,85918.00
2023-04-14T05:44:02.404Z,85927.66
2023-04-14T05:46:30.042Z,85933.25
2023-04-14T05:48:57.270Z,85925.44
2023-04-14T05:51:24.529Z,85928.03
2023-04-14T05:53:51.723Z,85922.88
2023-04-14T05:56:19.044Z,85929.19
2023-04-14T05:58:46.407Z,85930.69
2023-04-14T06:01:13.581Z,85936.28
2023-04-14T06:03:41.050Z,85925.47
2023-04-14T06:06:08.545Z,85933.28
2023-04-14T06:08:35.734Z,85929.97
2023-04-14T06:11:03.693Z,85934.44
2023-04-14T06:13:32.980Z,85936.69
2023-04-14T06:16:02.306Z,85931.50
2023-04-14T06:18:29.575Z,85929.63
2023-04-14T06:20:56.741Z,85928.16
2023-04-14T06:23:23.915Z,85937.81
2023-04-14T06:25:51.099Z,85934.47
2023-04-14T06:28:18.460Z,85936.34
2023-04-14T06:30:45.742Z,85937.50
2023-04-14T06:33:12.897Z,85943.44
2023-04-14T06:35:40.146Z,85938.25
2023-04-14T06:38:07.388Z,85937.16
2023-04-14T06:40:34.635Z,85934.19
2023-04-14T06:43:01.894Z,85936.06
2023-04-14T06:45:29.115Z,85932.75
2023-04-14T06:47:56.723Z,85934.25
2023-04-14T06:50:24.049Z,85939.09
2023-04-14T06:52:51.387Z,85941.34
2023-04-14T06:55:19.431Z,85928.69
2023-04-14T06:57:46.555Z,85927.59
2023-04-14T07:00:14.253Z,85933.56
2023-04-14T07:02:43.258Z,85932.06
2023-04-14T07:05:12.326Z,85922.41
2023-04-14T07:07:40.504Z,85924.28
2023-04-14T07:10:10.101Z,85928.00
2023-04-14T07:12:38.834Z,85933.22
2023-04-14T07:15:07.164Z,85934.00
2023-04-14T07:17:36.909Z,85929.16
2023-04-14T07:20:04.729Z,85933.63
2023-04-14T07:22:32.092Z,85932.53
2023-04-14T07:24:59.272Z,85931.06
2023-04-14T07:27:26.554Z,85926.97
2023-04-14T07:29:53.734Z,85938.13
2023-04-14T07:32:21.037Z,85937.03
2023-04-14T07:34:48.281Z,85926.97
2023-04-14T07:37:17.168Z,85927.75
2023-04-14T07:39:44.488Z,85927.00
2023-04-14T07:42:12.509Z,85921.78
2023-04-14T07:44:39.791Z,85922.16
2023-04-14T07:47:08.291Z,85922.16
2023-04-14T07:49:36.452Z,85927.34
2023-04-14T07:52:03.879Z,85925.50
2023-04-14T07:54:31.173Z,85938.91
2023-04-14T07:56:58.627Z,85934.44
2023-04-14T07:59:25.854Z,85937.44
2023-04-14T08:01:53.171Z,85928.88
2023-04-14T08:04:20.561Z,85930.72
2023-04-14T08:06:47.788Z,85927.38
2023-04-14T08:09:14.944Z,85934.13
2023-04-14T08:11:42.115Z,85941.19
2023-04-14T08:14:09.336Z,85936.34
2023-04-14T08:16:36.834Z,85943.81
2023-04-14T08:19:05.178Z,85950.91
2023-04-14T08:21:32.925Z,85941.22
2023-04-14T08:24:00.269Z,85945.31
2023-04-14T08:26:27.491Z,85944.94
2023-04-14T08:28:55.075Z,85944.94
2023-04-14T08:31:25.974Z,85946.44
2023-04-14T08:33:53.413Z,85944.56
2023-04-14T08:36:20.957Z,85953.53
2023-04-14T08:38:48.403Z,85947.94
2023-04-14T08:41:19.964Z,85944.59
2023-04-14T08:43:47.438Z,85956.88
2023-04-14T08:46:15.600Z,85956.88
2023-04-14T08:48:46.873Z,85968.81
2023-04-14T08:51:34.291Z,85975.91
2023-04-14T08:54:07.482Z,85982.63
2023-04-14T08:56:39.350Z,85987.50
2023-04-14T08:59:08.691Z,85981.50
2023-04-14T09:01:37.816Z,85979.66
2023-04-14T09:04:06.062Z,85983.38
2023-04-14T09:06:34.556Z,85987.09
2023-04-14T09:09:02.955Z,85980.00
2023-04-14T09:11:30.756Z,85983.34
2023-04-14T09:14:00.537Z,85981.88
2023-04-14T09:16:29.000Z,85979.25
2023-04-14T09:19:03.650Z,85986.34
2023-04-14T09:21:51.821Z,85980.00
2023-04-14T09:24:28.230Z,85984.06
2023-04-14T09:26:57.226Z,85980.72
2023-04-14T09:29:25.495Z,85986.69
2023-04-14T09:31:53.451Z,85977.69
2023-04-14T09:34:21.483Z,85974.72
2023-04-14T09:37:07.080Z,85976.56
2023-04-14T09:39:36.827Z,85968.66
2023-04-14T09:42:04.902Z,85962.63
2023-04-14T09:44:32.183Z,85969.38
2023-04-14T09:47:06.910Z,85967.88
2023-04-14T09:49:34.720Z,85966.41
2023-04-14T09:52:11.709Z,85969.00
2023-04-14T09:54:41.585Z,85964.59
2023-04-14T09:57:09.156Z,85958.97
2023-04-14T09:59:39.728Z,85958.63
2023-04-14T10:02:09.249Z,85960.81
2023-04-14T10:04:38.369Z,85970.25
2023-04-14T10:07:07.187Z,85980.69
2023-04-14T10:09:37.129Z,85979.59
2023-04-14T10:12:15.620Z,85982.97
2023-04-14T10:14:44.410Z,85972.88
2023-04-14T10:17:11.730Z,85972.81
2023-04-14T10:19:39.581Z,85971.97
2023-04-14T10:22:07.107Z,85968.56
2023-04-14T10:24:34.857Z,85970.41
2023-04-14T10:27:03.766Z,85961.44
2023-04-14T10:29:31.460Z,85959.19
2023-04-14T10:32:06.775Z,85953.09
2023-04-14T10:34:35.445Z,85956.03
2023-04-14T10:37:16.455Z,85963.50
2023-04-14T10:39:43.821Z,85958.13
2023-04-14T10:42:11.200Z,85957.59
2023-04-14T10:44:38.413Z,85957.69
2023-04-14T10:47:07.011Z,85947.03
2023-04-14T10:49:37.453Z,85949.31
2023-04-14T10:52:24.556Z,85940.69
2023-04-14T10:55:25.313Z,85936.75
2023-04-14T10:57:53.058Z,85944.75
2023-04-14T11:00:28.432Z,85937.28
2023-04-14T11:03:06.263Z,85943.06
2023-04-14T11:05:35.265Z,85944.03
2023-04-14T11:08:17.481Z,85943.56
2023-04-14T11:11:00.002Z,85941.94
2023-04-14T11:13:31.033Z,85946.63
2023-04-14T11:16:06.258Z,85953.25
2023-04-14T11:18:42.764Z,85948.84
2023-04-14T11:21:15.990Z,85941.78
2023-04-14T11:23:46.536Z,85935.84
2023-04-14T11:26:14.056Z,85933.16
2023-04-14T11:28:44.644Z,85933.00
2023-04-14T11:31:15.993Z,85939.19
2023-04-14T11:33:43.406Z,85932.50
2023-04-14T11:36:11.819Z,85922.06
2023-04-14T11:38:39.797Z,85931.63
2023-04-14T11:41:08.243Z,85932.91
2023-04-14T11:43:37.885Z,85923.56
2023-04-14T11:46:08.476Z,85927.41
2023-04-14T11:48:36.093Z,85929.09
2023-04-14T11:51:04.017Z,85928.09
2023-04-14T11:53:31.848Z,85925.28
2023-04-14T11:56:00.019Z,85925.03
2023-04-14T11:58:28.263Z,85925.13
2023-04-14T12:00:56.587Z,85934.34
2023-04-14T12:03:31.613Z,85935.03
2023-04-14T12:06:00.909Z,85926.59
2023-04-14T12:08:31.293Z,85926.59
2023-04-14T12:11:11.527Z,85915.53
2023-04-14T12:13:44.084Z,85925.84
2023-04-14T12:16:16.612Z,85930.75
2023-04-14T12:18:44.812Z,85925.78
2023-04-14T12:21:19.081Z,85923.94
2023-04-14T12:23:48.350Z,85916.94
2023-04-14T12:26:16.656Z,85920.16
2023-04-14T12:28:44.164Z,85917.50
2023-04-14T12:31:11.872Z,85915.91
2023-04-14T12:33:39.560Z,85908.53
2023-04-14T12:36:12.069Z,85908.22
2023-04-14T12:38:39.897Z,85906.06
2023-04-14T12:41:07.241Z,85909.31
2023-04-14T12:43:39.403Z,85908.72
2023-04-14T12:46:06.653Z,85917.97
2023-04-14T12:48:47.689Z,85901.56
2023-04-14T12:51:20.375Z,85901.50
2023-04-14T12:53:48.877Z,85900.44
2023-04-14T12:56:21.003Z,85892.63
2023-04-14T12:58:49.277Z,85902.34
2023-04-14T13:01:19.763Z,85900.97
2023-04-14T13:03:50.862Z,85899.25
2023-04-14T13:06:21.455Z,85892.66
2023-04-14T13:08:55.749Z,85884.34
2023-04-14T13:11:24.862Z,85892.41
2023-04-14T13:13:53.704Z,85903.94
2023-04-14T13:16:26.386Z,85899.91
2023-04-14T13:18:54.892Z,85895.25
2023-04-14T13:21:22.316Z,85901.00
2023-04-14T13:23:49.627Z,85902.47
2023-04-14T13:26:16.982Z,85893.25
2023-04-14T13:28:44.152Z,85892.28
2023-04-14T13:31:11.667Z,85883.16
2023-04-14T13:33:38.911Z,85885.88
2023-04-14T13:36:06.743Z,85892.75
2023-04-14T13:38:34.645Z,85892.91
2023-04-14T13:41:02.106Z,85885.78
2023-04-14T13:43:29.508Z,85887.06
2023-04-14T13:45:57.994Z,85892.78
2023-04-14T13:48:25.884Z,85896.38
2023-04-14T13:50:55.520Z,85897.56
2023-04-14T13:53:23.491Z,85888.66
2023-04-14T13:55:51.087Z,85896.28
2023-04-14T13:58:18.511Z,85902.72
2023-04-14T14:00:45.775Z,85907.63
2023-04-14T14:03:13.347Z,85898.19
2023-04-14T14:05:40.755Z,85900.50
2023-04-14T14:08:07.944Z,85898.09
2023-04-14T14:10:35.426Z,85906.84
2023-04-14T14:13:02.840Z,85909.34
2023-04-14T14:15:31.152Z,85909.94
2023-04-14T14:17:59.414Z,85917.78
2023-04-14T14:20:26.877Z,85922.78
2023-04-14T14:22:54.065Z,85917.59
2023-04-14T14:25:21.737Z,85920.25
2023-04-14T14:27:50.327Z,85932.75
2023-04-14T14:30:17.489Z,85921.97
2023-04-14T14:32:44.676Z,85934.03
2023-04-14T14:35:12.094Z,85936.00
2023-04-14T14:37:40.763Z,85937.63
2023-04-14T14:40:08.982Z,85943.59
2023-04-14T14:42:36.800Z,85944.59
2023-04-14T14:45:09.220Z,85949.31
2023-04-14T14:47:40.036Z,85948.91
2023-04-14T14:50:08.758Z,85940.81
2023-04-14T14:52:36.332Z,85946.34
2023-04-14T14:55:04.555Z,85940.56
2023-04-14T14:57:32.177Z,85948.31
2023-04-14T15:00:00.601Z,85947.91
2023-04-14T15:02:28.114Z,85953.34
2023-04-14T15:04:55.759Z,85952.69
2023-04-14T15:07:23.116Z,85955.56
2023-04-14T15:09:51.103Z,85946.16
2023-04-14T15:12:18.405Z,85949.00
2023-04-14T15:14:45.822Z,85953.44
2023-04-14T15:17:13.076Z,85949.56
2023-04-14T15:19:41.934Z,85952.75
2023-04-14T15:22:09.996Z,85959.69
2023-04-14T15:24:37.270Z,85959.53
2023-04-14T15:27:04.605Z,85964.19
2023-04-14T15:29:31.888Z,85959.78
2023-04-14T15:32:00.294Z,85975.13
2023-04-14T15:34:28.144Z,85970.97
2023-04-14T15:36:55.355Z,85963.63
2023-04-14T15:39:22.647Z,85959.34
2023-04-14T15:41:49.800Z,85967.31
2023-04-14T15:44:17.067Z,85968.34
2023-04-14T15:46:44.262Z,85968.00
2023-04-14T15:49:11.387Z,85973.91
2023-04-14T15:51:38.696Z,85971.34
2023-04-14T15:54:06.388Z,85964.56
2023-04-14T15:56:33.702Z,85969.75
2023-04-14T15:59:01.097Z,85972.00
2023-04-14T16:01:28.410Z,85970.78
2023-04-14T16:03:55.692Z,85978.22
2023-04-14T16:06:23.097Z,85975.69
2023-04-14T16:08:50.577Z,85983.47
2023-04-14T16:11:18.425Z,85979.66
2023-04-14T16:13:45.810Z,85983.31
2023-04-14T16:16:15.044Z,85988.69
2023-04-14T16:18:42.679Z,85996.09
2023-04-14T16:21:10.597Z,85991.22
2023-04-14T16:23:37.940Z,85994.56
2023-04-14T16:26:05.345Z,85987.19
2023-04-14T16:28:33.164Z,85990.50
2023-04-14T16:31:03.862Z,85995.75
2023-04-14T16:33:31.105Z,85992.19
2023-04-14T16:36:06.703Z,85996.66
2023-04-14T16:38:34.391Z,85995.88
2023-04-14T16:41:02.810Z,85993.16
2023-04-14T16:43:30.041Z,85988.56
2023-04-14T16:46:06.575Z,86002.81
2023-04-14T16:48:34.104Z,86004.22
2023-04-14T16:51:10.197Z,85996.25
2023-04-14T16:53:40.761Z,85999.34
2023-04-14T16:56:10.594Z,85998.16
2023-04-14T16:58:38.399Z,85995.50
2023-04-14T17:01:06.710Z,85994.81
2023-04-14T17:03:35.423Z,85995.91
2023-04-14T17:06:03.995Z,85998.16
2023-04-14T17:08:31.200Z,86006.94
2023-04-14T17:10:58.568Z,86004.59
2023-04-14T17:13:26.074Z,86000.50
2023-04-14T17:16:05.559Z,86015.16
2023-04-14T17:18:33.325Z,86017.41
2023-04-14T17:21:01.042Z,86025.94
2023-04-14T17:23:28.313Z,86024.16
2023-04-14T17:25:58.605Z,86029.22
2023-04-14T17:28:26.181Z,86025.91
2023-04-14T17:30:53.703Z,86024.03
2023-04-14T17:33:24.383Z,86032.75
2023-04-14T17:35:51.695Z,86033.19
2023-04-14T17:38:18.906Z,86033.19
2023-04-14T17:40:46.619Z,86046.78
2023-04-14T17:43:14.668Z,86042.63
2023-04-14T17:45:42.369Z,86040.41
2023-04-14T17:48:12.447Z,86048.91
2023-04-14T17:50:40.062Z,86045.66
2023-04-14T17:53:07.360Z,86049.78
2023-04-14T17:55:37.411Z,86048.97
2023-04-14T17:58:04.721Z,86040.75
2023-04-14T18:00:32.384Z,86045.19
2023-04-14T18:02:59.675Z,86053.34
2023-04-14T18:05:27.165Z,86055.63
2023-04-14T18:07:54.405Z,86051.22
2023-04-14T18:10:22.147Z,86058.31
2023-04-14T18:12:49.446Z,86060.25
2023-04-14T18:15:17.069Z,86059.16
2023-04-14T18:17:44.507Z,86061.91
2023-04-14T18:20:12.761Z,86065.28
2023-04-14T18:22:40.426Z,86064.56
2023-04-14T18:25:08.681Z,86066.09
2023-04-14T18:30:08.510Z,86080.84
2023-04-14T18:32:36.063Z,86081.56
2023-04-14T18:35:03.581Z,86080.47
2023-04-14T18:37:30.811Z,86080.47
2023-04-14T18:39:58.175Z,86082.44
2023-04-14T18:42:25.791Z,86090.28
2023-04-14T18:44:53.182Z,86091.38
2023-04-14T18:47:20.513Z,86092.53
2023-04-14T18:49:48.168Z,86098.94
2023-04-14T18:52:16.077Z,86098.16
2023-04-14T18:54:43.408Z,86096.66
2023-04-14T18:57:10.915Z,86102.28
2023-04-14T18:59:38.416Z,86098.94
2023-04-14T19:02:06.557Z,86100.13
2023-04-14T19:04:33.943Z,86102.38
2023-04-14T19:07:01.679Z,86106.09
2023-04-14T19:09:28.846Z,86109.53
2023-04-14T19:11:56.118Z,86113.63
2023-04-14T19:14:23.810Z,86117.38
2023-04-14T19:16:51.568Z,86112.91
2023-04-14T19:19:18.750Z,86109.94
2023-04-14T19:21:46.090Z,86123.78
2023-04-14T19:24:16.122Z,86125.66
2023-04-14T19:26:44.663Z,86124.53
2023-04-14T19:29:11.871Z,86129.00
2023-04-14T19:31:39.087Z,86129.75
2023-04-14T19:34:06.799Z,86129.03
2023-04-14T19:36:34.364Z,86128.25
2023-04-14T19:39:02.103Z,86131.28
2023-04-14T19:41:29.524Z,86123.03
2023-04-14T19:43:56.903Z,86127.53
2023-04-14T19:46:24.552Z,86127.53
2023-04-14T19:48:52.449Z,86131.66
2023-04-14T19:51:19.617Z,86133.13
2023-04-14T19:53:46.788Z,86129.00
2023-04-14T19:56:14.391Z,86128.63
2023-04-14T19:58:41.876Z,86136.47
2023-04-14T20:01:09.050Z,86129.75
2023-04-14T20:03:36.396Z,86134.97
2023-04-14T20:06:04.283Z,86122.66
2023-04-14T20:08:31.470Z,86140.22
2023-04-14T20:10:59.182Z,86137.97
2023-04-14T20:13:26.855Z,86132.00
2023-04-14T20:15:54.308Z,86135.34
2023-04-14T20:18:21.901Z,86136.13
2023-04-14T20:20:49.500Z,86133.88
2023-04-14T20:23:17.252Z,86129.41
2023-04-14T20:25:44.521Z,86123.75
2023-04-14T20:28:12.579Z,86133.50
2023-04-14T20:30:39.980Z,86129.00
2023-04-14T20:33:07.202Z,86138.72
2023-04-14T20:35:36.425Z,86143.97
2023-04-14T20:38:04.426Z,86143.22
2023-04-14T20:40:31.853Z,86133.88
2023-04-14T20:42:59.516Z,86134.63
2023-04-14T20:45:27.134Z,86134.25
2023-04-14T20:47:54.680Z,86129.75
2023-04-14T20:50:22.581Z,86132.41
2023-04-14T20:52:50.625Z,86142.09
2023-04-14T20:55:19.289Z,86141.34
2023-04-14T20:57:47.947Z,86139.47
2023-04-14T21:00:16.753Z,86139.84
2023-04-14T21:02:47.443Z,86140.97
2023-04-14T21:05:15.421Z,86140.63
2023-04-14T21:07:42.691Z,86138.34
2023-04-14T21:10:11.414Z,86136.13
2023-04-14T21:15:25.490Z,86136.50
2023-04-14T21:15:50.956Z,86145.09
2023-04-14T21:18:14.093Z,86137.63
2023-04-14T21:20:50.609Z,86141.34
2023-04-14T21:23:18.351Z,86139.50
2023-04-14T21:25:45.574Z,86142.47
2023-04-14T21:28:13.062Z,86139.13
2023-04-14T21:30:46.562Z,86139.47
2023-04-14T21:33:14.189Z,86138.72
2023-04-14T21:35:41.583Z,86142.09
2023-04-14T21:38:08.776Z,86134.63
2023-04-14T21:40:35.980Z,86137.22
2023-04-14T21:43:03.423Z,86142.41
2023-04-14T21:45:31.083Z,86145.06
2023-04-14T21:47:58.452Z,86134.25
2023-04-14T21:50:25.778Z,86139.84
2023-04-14T21:52:53.017Z,86143.22
2023-04-14T21:55:20.303Z,86141.72
2023-04-14T21:57:49.718Z,86132.69
2023-04-14T22:00:18.175Z,86135.72
2023-04-14T22:02:46.630Z,86135.72
2023-04-14T22:05:15.774Z,86137.56
2023-04-14T22:07:43.029Z,86132.34
2023-04-14T22:10:11.508Z,86132.72
2023-04-14T22:12:39.924Z,86131.56
2023-04-14T22:15:09.284Z,86140.16
2023-04-14T22:17:38.869Z,86128.22
2023-04-14T22:20:07.716Z,86135.31
2023-04-14T22:22:35.783Z,86128.59
2023-04-14T22:25:04.414Z,86134.19
2023-04-14T22:27:32.422Z,86124.84
2023-04-14T22:29:59.670Z,86127.50
2023-04-14T22:32:27.326Z,86130.47
2023-04-14T22:34:54.950Z,86126.72
2023-04-14T22:37:22.263Z,86126.72
2023-04-14T22:39:49.545Z,86126.00
2023-04-14T22:42:16.816Z,86128.97
2023-04-14T22:44:44.101Z,86135.31
2023-04-14T22:47:11.287Z,86134.94
2023-04-14T22:49:38.564Z,86130.47
2023-04-14T22:52:05.878Z,86139.06
2023-04-14T22:54:33.416Z,86139.41
2023-04-14T22:57:00.717Z,86138.69
2023-04-14T22:59:27.958Z,86137.53
2023-04-14T23:01:55.294Z,86146.16
2023-04-14T23:04:22.753Z,86150.63
2023-04-14T23:06:50.186Z,86140.91
2023-04-14T23:09:17.435Z,86139.78
2023-04-14T23:11:44.722Z,86143.91
2023-04-14T23:14:12.250Z,86146.13
2023-04-14T23:16:39.687Z,86146.13
2023-04-14T23:19:06.949Z,86145.75
2023-04-14T23:21:34.209Z,86146.84
2023-04-14T23:24:01.456Z,86142.00
2023-04-14T23:26:28.770Z,86138.63
2023-04-14T23:28:56.176Z,86145.34
2023-04-14T23:31:23.507Z,86144.97
2023-04-14T23:34:14.118Z,86146.81
2023-04-14T23:36:51.489Z,86142.69
2023-04-14T23:39:18.710Z,86130.38
2023-04-14T23:41:45.853Z,86138.22
2023-04-14T23:44:13.120Z,86133.34
2023-04-14T23:46:40.707Z,86137.84
2023-04-14T23:49:11.340Z,86130.00
2023-04-14T23:51:51.985Z,86135.97
2023-04-14T23:54:19.178Z,86131.88
2023-04-14T23:56:47.144Z,86126.63
2023-04-14T23:59:14.564Z,86129.25
